sensor_id;sensor_type;location;lat;lon;timestamp;pressure;altitude;pressure_sealevel;temperature;humidity
11345;BME280;5727;42.600;23.028;2023-03-01T00:02:14;94043.25;;;8.98;100.00
11345;BME280;5727;42.600;23.028;2023-03-01T00:04:40;94038.94;;;9.02;100.00
11345;BME280;5727;42.600;23.028;2023-03-01T00:07:07;94036.63;;;8.92;100.00
11345;BME280;5727;42.600;23.028;2023-03-01T00:09:35;94028.47;;;8.85;100.00
11345;BME280;5727;42.600;23.028;2023-03-01T00:12:02;94029.06;;;8.82;100.00
11345;BME280;5727;42.600;23.028;2023-03-01T00:14:29;94027.41;;;8.78;100.00
11345;BME280;5727;42.600;23.028;2023-03-01T00:16:56;94016.94;;;8.86;100.00
11345;BME280;5727;42.600;23.028;2023-03-01T00:19:23;94020.78;;;8.80;100.00
11345;BME280;5727;42.600;23.028;2023-03-01T00:21:50;94016.03;;;8.74;100.00
11345;BME280;5727;42.600;23.028;2023-03-01T00:24:17;94018.47;;;8.70;100.00
11345;BME280;5727;42.600;23.028;2023-03-01T00:26:45;94013.06;;;8.67;100.00
11345;BME280;5727;42.600;23.028;2023-03-01T00:29:11;94009.69;;;8.58;100.00
11345;BME280;5727;42.600;23.028;2023-03-01T00:31:38;94012.44;;;8.44;100.00
11345;BME280;5727;42.600;23.028;2023-03-01T00:34:05;94006.16;;;8.54;100.00
11345;BME280;5727;42.600;23.028;2023-03-01T00:36:33;94000.34;;;8.57;100.00
11345;BME280;5727;42.600;23.028;2023-03-01T00:39:01;94008.00;;;8.62;100.00
11345;BME280;5727;42.600;23.028;2023-03-01T00:41:28;94009.84;;;8.61;100.00
11345;BME280;5727;42.600;23.028;2023-03-01T00:43:56;94007.69;;;8.55;100.00
11345;BME280;5727;42.600;23.028;2023-03-01T00:46:25;94015.53;;;8.55;100.00
11345;BME280;5727;42.600;23.028;2023-03-01T00:48:52;94018.91;;;8.55;100.00
11345;BME280;5727;42.600;23.028;2023-03-01T00:51:21;94019.38;;;8.57;100.00
11345;BME280;5727;42.600;23.028;2023-03-01T00:53:50;94020.75;;;8.63;100.00
11345;BME280;5727;42.600;23.028;2023-03-01T00:56:16;94026.13;;;8.67;100.00
11345;BME280;5727;42.600;23.028;2023-03-01T00:58:43;94026.28;;;8.70;100.00
11345;BME280;5727;42.600;23.028;2023-03-01T01:01:13;94028.28;;;8.65;100.00
11345;BME280;5727;42.600;23.028;2023-03-01T01:03:45;94029.50;;;8.50;100.00
11345;BME280;5727;42.600;23.028;2023-03-01T01:06:16;94025.44;;;8.27;100.00
11345;BME280;5727;42.600;23.028;2023-03-01T01:08:43;94021.38;;;8.12;100.00
11345;BME280;5727;42.600;23.028;2023-03-01T01:11:10;94017.53;;;8.18;100.00
11345;BME280;5727;42.600;23.028;2023-03-01T01:13:37;94014.94;;;8.18;100.00
11345;BME280;5727;42.600;23.028;2023-03-01T01:16:05;94008.50;;;8.16;100.00
11345;BME280;5727;42.600;23.028;2023-03-01T01:18:34;94003.13;;;8.21;100.00
11345;BME280;5727;42.600;23.028;2023-03-01T01:21:05;94001.94;;;8.27;100.00
11345;BME280;5727;42.600;23.028;2023-03-01T01:23:32;94005.44;;;8.22;100.00
11345;BME280;5727;42.600;23.028;2023-03-01T01:26:03;94015.13;;;8.22;100.00
11345;BME280;5727;42.600;23.028;2023-03-01T01:28:30;94002.34;;;8.12;100.00
11345;BME280;5727;42.600;23.028;2023-03-01T01:30:57;93996.19;;;8.08;100.00
11345;BME280;5727;42.600;23.028;2023-03-01T01:33:24;94005.41;;;8.14;100.00
11345;BME280;5727;42.600;23.028;2023-03-01T01:35:52;94004.09;;;8.25;100.00
11345;BME280;5727;42.600;23.028;2023-03-01T01:38:19;94001.47;;;8.25;100.00
11345;BME280;5727;42.600;23.028;2023-03-01T01:40:47;94003.44;;;8.19;100.00
11345;BME280;5727;42.600;23.028;2023-03-01T01:43:19;94004.78;;;8.17;100.00
11345;BME280;5727;42.600;23.028;2023-03-01T01:45:46;94000.31;;;8.09;100.00
11345;BME280;5727;42.600;23.028;2023-03-01T01:48:16;94002.66;;;8.10;100.00
11345;BME280;5727;42.600;23.028;2023-03-01T01:50:45;94008.91;;;8.09;100.00
11345;BME280;5727;42.600;23.028;2023-03-01T01:53:17;94001.88;;;8.18;100.00
11345;BME280;5727;42.600;23.028;2023-03-01T01:55:50;93992.97;;;8.11;100.00
11345;BME280;5727;42.600;23.028;2023-03-01T01:58:20;93995.59;;;8.19;100.00
11345;BME280;5727;42.600;23.028;2023-03-01T02:00:48;93991.31;;;8.23;100.00
11345;BME280;5727;42.600;23.028;2023-03-01T02:03:19;93978.09;;;8.20;100.00
11345;BME280;5727;42.600;23.028;2023-03-01T02:05:53;93971.22;;;8.24;100.00
11345;BME280;5727;42.600;23.028;2023-03-01T02:08:26;93979.44;;;8.09;100.00
11345;BME280;5727;42.600;23.028;2023-03-01T02:10:56;93974.38;;;8.04;100.00
11345;BME280;5727;42.600;23.028;2023-03-01T02:13:25;93982.97;;;8.13;100.00
11345;BME280;5727;42.600;23.028;2023-03-01T02:15:52;93976.56;;;8.10;100.00
11345;BME280;5727;42.600;23.028;2023-03-01T02:18:21;93970.34;;;7.89;100.00
11345;BME280;5727;42.600;23.028;2023-03-01T02:20:56;93968.66;;;7.93;100.00
11345;BME280;5727;42.600;23.028;2023-03-01T02:23:29;93970.34;;;7.98;100.00
11345;BME280;5727;42.600;23.028;2023-03-01T02:26:01;93975.16;;;8.04;100.00
11345;BME280;5727;42.600;23.028;2023-03-01T02:28:35;93977.91;;;8.08;100.00
11345;BME280;5727;42.600;23.028;2023-03-01T02:31:04;93976.19;;;7.95;100.00
11345;BME280;5727;42.600;23.028;2023-03-01T02:33:51;93971.28;;;8.02;100.00
11345;BME280;5727;42.600;23.028;2023-03-01T02:36:20;93966.38;;;8.00;100.00
11345;BME280;5727;42.600;23.028;2023-03-01T02:38:48;93968.22;;;8.00;100.00
11345;BME280;5727;42.600;23.028;2023-03-01T02:41:17;93966.69;;;8.07;100.00
11345;BME280;5727;42.600;23.028;2023-03-01T02:43:47;93970.66;;;7.96;100.00
11345;BME280;5727;42.600;23.028;2023-03-01T02:46:16;93962.25;;;8.08;100.00
11345;BME280;5727;42.600;23.028;2023-03-01T02:48:45;93966.84;;;8.02;100.00
11345;BME280;5727;42.600;23.028;2023-03-01T02:51:27;93973.47;;;8.08;100.00
11345;BME280;5727;42.600;23.028;2023-03-01T02:54:07;93974.72;;;7.80;100.00
11345;BME280;5727;42.600;23.028;2023-03-01T02:56:36;93962.72;;;7.71;100.00
11345;BME280;5727;42.600;23.028;2023-03-01T02:59:04;93966.34;;;7.53;100.00
11345;BME280;5727;42.600;23.028;2023-03-01T03:01:31;93952.22;;;7.23;100.00
11345;BME280;5727;42.600;23.028;2023-03-01T03:04:04;93957.69;;;6.91;100.00
11345;BME280;5727;42.600;23.028;2023-03-01T03:06:31;93963.41;;;7.01;100.00
11345;BME280;5727;42.600;23.028;2023-03-01T03:08:59;93966.69;;;7.07;100.00
11345;BME280;5727;42.600;23.028;2023-03-01T03:11:25;93967.75;;;7.06;100.00
11345;BME280;5727;42.600;23.028;2023-03-01T03:13:52;93962.38;;;7.02;100.00
11345;BME280;5727;42.600;23.028;2023-03-01T03:16:21;93967.50;;;6.94;100.00
11345;BME280;5727;42.600;23.028;2023-03-01T03:18:48;93965.50;;;6.91;100.00
11345;BME280;5727;42.600;23.028;2023-03-01T03:21:15;93961.34;;;6.90;100.00
11345;BME280;5727;42.600;23.028;2023-03-01T03:23:42;93964.81;;;6.99;100.00
11345;BME280;5727;42.600;23.028;2023-03-01T03:26:09;93965.53;;;6.99;100.00
11345;BME280;5727;42.600;23.028;2023-03-01T03:28:38;93972.63;;;6.99;100.00
11345;BME280;5727;42.600;23.028;2023-03-01T03:31:06;93962.13;;;7.12;100.00
11345;BME280;5727;42.600;23.028;2023-03-01T03:33:35;93974.00;;;7.27;100.00
11345;BME280;5727;42.600;23.028;2023-03-01T03:36:02;93970.88;;;7.38;100.00
11345;BME280;5727;42.600;23.028;2023-03-01T03:38:29;93975.84;;;7.49;100.00
11345;BME280;5727;42.600;23.028;2023-03-01T03:41:00;93980.03;;;7.58;100.00
11345;BME280;5727;42.600;23.028;2023-03-01T03:43:29;93975.78;;;7.71;100.00
11345;BME280;5727;42.600;23.028;2023-03-01T03:45:56;93982.88;;;7.79;100.00
11345;BME280;5727;42.600;23.028;2023-03-01T03:48:24;93981.34;;;7.78;100.00
11345;BME280;5727;42.600;23.028;2023-03-01T03:50:54;93977.81;;;7.82;100.00
11345;BME280;5727;42.600;23.028;2023-03-01T03:53:22;93987.63;;;7.77;100.00
11345;BME280;5727;42.600;23.028;2023-03-01T03:55:50;93977.34;;;7.80;100.00
11345;BME280;5727;42.600;23.028;2023-03-01T03:58:18;93985.63;;;7.82;100.00
11345;BME280;5727;42.600;23.028;2023-03-01T04:01:03;93979.78;;;7.77;100.00
11345;BME280;5727;42.600;23.028;2023-03-01T04:03:31;93985.44;;;7.70;100.00
11345;BME280;5727;42.600;23.028;2023-03-01T04:06:00;93982.38;;;7.68;100.00
11345;BME280;5727;42.600;23.028;2023-03-01T04:08:28;93980.41;;;7.74;100.00
11345;BME280;5727;42.600;23.028;2023-03-01T04:10:58;93975.91;;;7.66;100.00
11345;BME280;5727;42.600;23.028;2023-03-01T04:13:25;93980.34;;;7.65;100.00
11345;BME280;5727;42.600;23.028;2023-03-01T04:15:53;93974.97;;;7.62;100.00
11345;BME280;5727;42.600;23.028;2023-03-01T04:18:22;93977.41;;;7.58;100.00
11345;BME280;5727;42.600;23.028;2023-03-01T04:20:49;93988.63;;;7.59;100.00
11345;BME280;5727;42.600;23.028;2023-03-01T04:23:19;93983.72;;;7.66;100.00
11345;BME280;5727;42.600;23.028;2023-03-01T04:25:47;93983.25;;;7.64;100.00
11345;BME280;5727;42.600;23.028;2023-03-01T04:28:19;93979.47;;;7.70;100.00
11345;BME280;5727;42.600;23.028;2023-03-01T04:30:45;93971.63;;;7.70;100.00
11345;BME280;5727;42.600;23.028;2023-03-01T04:33:12;93981.13;;;7.66;100.00
11345;BME280;5727;42.600;23.028;2023-03-01T04:35:39;93987.41;;;7.65;100.00
11345;BME280;5727;42.600;23.028;2023-03-01T04:38:06;93982.56;;;7.50;100.00
11345;BME280;5727;42.600;23.028;2023-03-01T04:40:34;93984.47;;;7.58;100.00
11345;BME280;5727;42.600;23.028;2023-03-01T04:43:02;93986.47;;;7.61;100.00
11345;BME280;5727;42.600;23.028;2023-03-01T04:45:30;93985.16;;;7.72;100.00
11345;BME280;5727;42.600;23.028;2023-03-01T04:47:57;93977.44;;;7.67;100.00
11345;BME280;5727;42.600;23.028;2023-03-01T04:50:24;93977.34;;;7.50;100.00
11345;BME280;5727;42.600;23.028;2023-03-01T04:52:52;93978.13;;;7.50;100.00
11345;BME280;5727;42.600;23.028;2023-03-01T04:55:19;93986.38;;;7.43;100.00
11345;BME280;5727;42.600;23.028;2023-03-01T04:57:47;93988.69;;;7.45;100.00
11345;BME280;5727;42.600;23.028;2023-03-01T05:00:14;93984.97;;;7.37;100.00
11345;BME280;5727;42.600;23.028;2023-03-01T05:02:48;93982.84;;;7.39;100.00
11345;BME280;5727;42.600;23.028;2023-03-01T05:05:21;93983.41;;;7.36;100.00
11345;BME280;5727;42.600;23.028;2023-03-01T05:07:52;93978.97;;;7.37;100.00
11345;BME280;5727;42.600;23.028;2023-03-01T05:10:19;93984.69;;;7.39;100.00
11345;BME280;5727;42.600;23.028;2023-03-01T05:12:47;93995.41;;;7.37;100.00
11345;BME280;5727;42.600;23.028;2023-03-01T05:15:14;93988.06;;;7.39;100.00
11345;BME280;5727;42.600;23.028;2023-03-01T05:17:41;93995.75;;;7.45;100.00
11345;BME280;5727;42.600;23.028;2023-03-01T05:20:09;93992.25;;;7.49;100.00
11345;BME280;5727;42.600;23.028;2023-03-01T05:22:36;93996.06;;;7.52;100.00
11345;BME280;5727;42.600;23.028;2023-03-01T05:25:04;93995.78;;;7.53;100.00
11345;BME280;5727;42.600;23.028;2023-03-01T05:27:31;93995.19;;;7.56;100.00
11345;BME280;5727;42.600;23.028;2023-03-01T05:29:59;93997.91;;;7.51;100.00
11345;BME280;5727;42.600;23.028;2023-03-01T05:32:40;93997.56;;;7.44;100.00
11345;BME280;5727;42.600;23.028;2023-03-01T05:35:07;93997.47;;;7.49;100.00
11345;BME280;5727;42.600;23.028;2023-03-01T05:37:34;94003.00;;;7.56;100.00
11345;BME280;5727;42.600;23.028;2023-03-01T05:40:01;94004.53;;;7.57;100.00
11345;BME280;5727;42.600;23.028;2023-03-01T05:42:28;94006.72;;;7.64;100.00
11345;BME280;5727;42.600;23.028;2023-03-01T05:44:55;94012.88;;;7.68;100.00
11345;BME280;5727;42.600;23.028;2023-03-01T05:47:24;94012.41;;;7.66;100.00
11345;BME280;5727;42.600;23.028;2023-03-01T05:49:51;94016.69;;;7.62;100.00
11345;BME280;5727;42.600;23.028;2023-03-01T05:52:18;94021.75;;;7.67;100.00
11345;BME280;5727;42.600;23.028;2023-03-01T05:54:44;94024.84;;;7.69;100.00
11345;BME280;5727;42.600;23.028;2023-03-01T05:57:11;94028.66;;;7.63;100.00
11345;BME280;5727;42.600;23.028;2023-03-01T05:59:38;94027.72;;;7.59;100.00
11345;BME280;5727;42.600;23.028;2023-03-01T06:02:04;94034.13;;;7.53;100.00
11345;BME280;5727;42.600;23.028;2023-03-01T06:04:32;94037.38;;;7.58;100.00
11345;BME280;5727;42.600;23.028;2023-03-01T06:06:59;94038.03;;;7.64;100.00
11345;BME280;5727;42.600;23.028;2023-03-01T06:09:26;94041.25;;;7.61;100.00
11345;BME280;5727;42.600;23.028;2023-03-01T06:11:52;94035.88;;;7.43;100.00
11345;BME280;5727;42.600;23.028;2023-03-01T06:14:19;94043.13;;;7.47;100.00
11345;BME280;5727;42.600;23.028;2023-03-01T06:16:46;94041.19;;;7.52;100.00
11345;BME280;5727;42.600;23.028;2023-03-01T06:19:13;94046.16;;;7.62;100.00
11345;BME280;5727;42.600;23.028;2023-03-01T06:21:41;94047.75;;;7.50;100.00
11345;BME280;5727;42.600;23.028;2023-03-01T06:24:08;94057.13;;;7.51;100.00
11345;BME280;5727;42.600;23.028;2023-03-01T06:26:34;94053.19;;;7.62;100.00
11345;BME280;5727;42.600;23.028;2023-03-01T06:29:01;94055.09;;;7.70;100.00
11345;BME280;5727;42.600;23.028;2023-03-01T06:31:28;94049.94;;;7.56;100.00
11345;BME280;5727;42.600;23.028;2023-03-01T06:33:55;94050.03;;;7.51;100.00
11345;BME280;5727;42.600;23.028;2023-03-01T06:36:21;94046.16;;;7.62;100.00
11345;BME280;5727;42.600;23.028;2023-03-01T06:38:49;94055.56;;;7.72;100.00
11345;BME280;5727;42.600;23.028;2023-03-01T06:41:16;94056.03;;;7.74;100.00
11345;BME280;5727;42.600;23.028;2023-03-01T06:43:43;94058.63;;;7.74;100.00
11345;BME280;5727;42.600;23.028;2023-03-01T06:46:10;94066.97;;;7.84;100.00
11345;BME280;5727;42.600;23.028;2023-03-01T06:48:36;94062.19;;;7.78;100.00
11345;BME280;5727;42.600;23.028;2023-03-01T06:51:04;94059.66;;;7.95;100.00
11345;BME280;5727;42.600;23.028;2023-03-01T06:53:30;94068.00;;;8.05;100.00
11345;BME280;5727;42.600;23.028;2023-03-01T06:55:58;94066.97;;;8.15;100.00
11345;BME280;5727;42.600;23.028;2023-03-01T06:58:25;94058.25;;;8.19;100.00
11345;BME280;5727;42.600;23.028;2023-03-01T07:00:52;94059.09;;;8.06;100.00
11345;BME280;5727;42.600;23.028;2023-03-01T07:03:19;94062.44;;;7.98;100.00
11345;BME280;5727;42.600;23.028;2023-03-01T07:05:48;94065.94;;;7.94;100.00
11345;BME280;5727;42.600;23.028;2023-03-01T07:08:15;94063.50;;;7.97;100.00
11345;BME280;5727;42.600;23.028;2023-03-01T07:10:41;94062.59;;;8.02;100.00
11345;BME280;5727;42.600;23.028;2023-03-01T07:13:10;94054.16;;;8.05;100.00
11345;BME280;5727;42.600;23.028;2023-03-01T07:15:36;94058.38;;;8.14;100.00
11345;BME280;5727;42.600;23.028;2023-03-01T07:18:03;94063.63;;;8.23;100.00
11345;BME280;5727;42.600;23.028;2023-03-01T07:20:30;94058.75;;;8.30;100.00
11345;BME280;5727;42.600;23.028;2023-03-01T07:22:56;94062.31;;;8.34;100.00
11345;BME280;5727;42.600;23.028;2023-03-01T07:25:24;94063.34;;;8.24;100.00
11345;BME280;5727;42.600;23.028;2023-03-01T07:27:51;94060.00;;;8.32;100.00
11345;BME280;5727;42.600;23.028;2023-03-01T07:30:20;94059.56;;;8.39;100.00
11345;BME280;5727;42.600;23.028;2023-03-01T07:32:47;94059.75;;;8.51;100.00
11345;BME280;5727;42.600;23.028;2023-03-01T07:35:14;94059.31;;;8.58;100.00
11345;BME280;5727;42.600;23.028;2023-03-01T07:37:41;94055.34;;;8.69;100.00
11345;BME280;5727;42.600;23.028;2023-03-01T07:40:09;94054.75;;;8.80;100.00
11345;BME280;5727;42.600;23.028;2023-03-01T07:42:35;94054.00;;;8.88;100.00
11345;BME280;5727;42.600;23.028;2023-03-01T07:45:03;94049.38;;;8.94;100.00
11345;BME280;5727;42.600;23.028;2023-03-01T07:47:31;94054.28;;;8.95;100.00
11345;BME280;5727;42.600;23.028;2023-03-01T07:49:58;94050.31;;;8.98;100.00
11345;BME280;5727;42.600;23.028;2023-03-01T07:52:26;94055.22;;;8.99;100.00
11345;BME280;5727;42.600;23.028;2023-03-01T07:54:53;94046.91;;;8.97;100.00
11345;BME280;5727;42.600;23.028;2023-03-01T07:57:20;94040.94;;;9.05;100.00
11345;BME280;5727;42.600;23.028;2023-03-01T07:59:46;94042.78;;;9.05;100.00
11345;BME280;5727;42.600;23.028;2023-03-01T08:02:13;94039.56;;;9.08;100.00
11345;BME280;5727;42.600;23.028;2023-03-01T08:04:42;94043.09;;;9.12;100.00
11345;BME280;5727;42.600;23.028;2023-03-01T08:07:09;94045.88;;;9.15;100.00
11345;BME280;5727;42.600;23.028;2023-03-01T08:09:35;94054.00;;;9.05;100.00
11345;BME280;5727;42.600;23.028;2023-03-01T08:12:03;94045.72;;;8.95;100.00
11345;BME280;5727;42.600;23.028;2023-03-01T08:14:31;94049.84;;;8.87;100.00
11345;BME280;5727;42.600;23.028;2023-03-01T08:16:57;94047.19;;;8.70;100.00
11345;BME280;5727;42.600;23.028;2023-03-01T08:19:24;94047.06;;;8.75;100.00
11345;BME280;5727;42.600;23.028;2023-03-01T08:21:54;94045.50;;;8.74;100.00
11345;BME280;5727;42.600;23.028;2023-03-01T08:24:24;94043.78;;;8.61;100.00
11345;BME280;5727;42.600;23.028;2023-03-01T08:26:50;94049.19;;;8.65;100.00
11345;BME280;5727;42.600;23.028;2023-03-01T08:29:17;94041.97;;;8.70;100.00
11345;BME280;5727;42.600;23.028;2023-03-01T08:31:44;94042.59;;;8.84;100.00
11345;BME280;5727;42.600;23.028;2023-03-01T08:34:13;94045.84;;;8.90;100.00
11345;BME280;5727;42.600;23.028;2023-03-01T08:36:42;94049.38;;;8.94;100.00
11345;BME280;5727;42.600;23.028;2023-03-01T08:39:12;94042.03;;;9.04;100.00
11345;BME280;5727;42.600;23.028;2023-03-01T08:41:39;94052.63;;;9.08;100.00
11345;BME280;5727;42.600;23.028;2023-03-01T08:44:06;94043.25;;;9.15;100.00
11345;BME280;5727;42.600;23.028;2023-03-01T08:46:36;94046.63;;;9.24;100.00
11345;BME280;5727;42.600;23.028;2023-03-01T08:49:04;94048.47;;;9.33;100.00
11345;BME280;5727;42.600;23.028;2023-03-01T08:51:31;94045.69;;;9.38;100.00
11345;BME280;5727;42.600;23.028;2023-03-01T08:54:01;94042.78;;;9.31;100.00
11345;BME280;5727;42.600;23.028;2023-03-01T08:56:30;94036.16;;;9.24;100.00
11345;BME280;5727;42.600;23.028;2023-03-01T08:58:57;94039.25;;;9.35;100.00
11345;BME280;5727;42.600;23.028;2023-03-01T09:01:24;94036.50;;;9.32;100.00
11345;BME280;5727;42.600;23.028;2023-03-01T09:03:51;94035.69;;;9.40;100.00
11345;BME280;5727;42.600;23.028;2023-03-01T09:06:18;94031.25;;;9.49;100.00
11345;BME280;5727;42.600;23.028;2023-03-01T09:08:46;94030.91;;;9.59;100.00
11345;BME280;5727;42.600;23.028;2023-03-01T09:11:15;94038.88;;;9.71;100.00
11345;BME280;5727;42.600;23.028;2023-03-01T09:13:44;94035.16;;;9.89;100.00
11345;BME280;5727;42.600;23.028;2023-03-01T09:16:11;94038.50;;;9.98;100.00
11345;BME280;5727;42.600;23.028;2023-03-01T09:18:39;94034.78;;;9.99;100.00
11345;BME280;5727;42.600;23.028;2023-03-01T09:21:08;94038.50;;;9.98;100.00
11345;BME280;5727;42.600;23.028;2023-03-01T09:23:35;94036.63;;;10.07;100.00
11345;BME280;5727;42.600;23.028;2023-03-01T09:26:04;94042.19;;;10.14;100.00
11345;BME280;5727;42.600;23.028;2023-03-01T09:28:31;94038.00;;;10.22;100.00
11345;BME280;5727;42.600;23.028;2023-03-01T09:31:00;94032.25;;;10.28;100.00
11345;BME280;5727;42.600;23.028;2023-03-01T09:33:28;94034.84;;;10.37;100.00
11345;BME280;5727;42.600;23.028;2023-03-01T09:35:57;94026.25;;;10.57;100.00
11345;BME280;5727;42.600;23.028;2023-03-01T09:38:24;94034.53;;;10.67;100.00
11345;BME280;5727;42.600;23.028;2023-03-01T09:40:51;94024.50;;;10.69;100.00
11345;BME280;5727;42.600;23.028;2023-03-01T09:43:21;94029.41;;;10.71;100.00
11345;BME280;5727;42.600;23.028;2023-03-01T09:45:50;94028.63;;;10.70;100.00
11345;BME280;5727;42.600;23.028;2023-03-01T09:48:23;94029.06;;;10.81;100.00
11345;BME280;5727;42.600;23.028;2023-03-01T09:50:51;94030.25;;;10.83;100.00
11345;BME280;5727;42.600;23.028;2023-03-01T09:53:20;94025.66;;;10.80;100.00
11345;BME280;5727;42.600;23.028;2023-03-01T09:55:52;94026.31;;;10.77;100.00
11345;BME280;5727;42.600;23.028;2023-03-01T09:58:46;94028.03;;;10.44;100.00
11345;BME280;5727;42.600;23.028;2023-03-01T10:01:34;94019.63;;;10.30;100.00
11345;BME280;5727;42.600;23.028;2023-03-01T10:04:15;94009.00;;;10.27;100.00
11345;BME280;5727;42.600;23.028;2023-03-01T10:06:54;94006.25;;;10.23;100.00
11345;BME280;5727;42.600;23.028;2023-03-01T10:09:34;94001.34;;;10.22;100.00
11345;BME280;5727;42.600;23.028;2023-03-01T10:12:07;94004.41;;;10.24;100.00
11345;BME280;5727;42.600;23.028;2023-03-01T10:14:36;93998.88;;;10.17;100.00
11345;BME280;5727;42.600;23.028;2023-03-01T10:17:10;93999.81;;;10.41;100.00
11345;BME280;5727;42.600;23.028;2023-03-01T10:19:42;94007.56;;;10.67;100.00
11345;BME280;5727;42.600;23.028;2023-03-01T10:22:14;94008.38;;;10.59;100.00
11345;BME280;5727;42.600;23.028;2023-03-01T10:24:41;94008.44;;;10.50;100.00
11345;BME280;5727;42.600;23.028;2023-03-01T10:27:16;94003.63;;;10.81;100.00
11345;BME280;5727;42.600;23.028;2023-03-01T10:29:49;94006.16;;;10.90;100.00
11345;BME280;5727;42.600;23.028;2023-03-01T10:32:18;93997.38;;;11.06;100.00
11345;BME280;5727;42.600;23.028;2023-03-01T10:34:48;93997.56;;;11.22;100.00
11345;BME280;5727;42.600;23.028;2023-03-01T10:37:16;93993.66;;;11.28;100.00
11345;BME280;5727;42.600;23.028;2023-03-01T10:39:55;93987.91;;;11.35;100.00
11345;BME280;5727;42.600;23.028;2023-03-01T10:42:26;93989.53;;;11.27;100.00
11345;BME280;5727;42.600;23.028;2023-03-01T10:44:54;93986.63;;;11.41;100.00
11345;BME280;5727;42.600;23.028;2023-03-01T10:47:22;93981.69;;;11.72;100.00
11345;BME280;5727;42.600;23.028;2023-03-01T10:49:54;93986.63;;;11.73;100.00
11345;BME280;5727;42.600;23.028;2023-03-01T10:52:23;93980.56;;;11.61;100.00
11345;BME280;5727;42.600;23.028;2023-03-01T10:54:53;93988.44;;;11.07;100.00
11345;BME280;5727;42.600;23.028;2023-03-01T10:57:33;93988.72;;;10.73;100.00
11345;BME280;5727;42.600;23.028;2023-03-01T11:00:19;93979.13;;;10.77;100.00
11345;BME280;5727;42.600;23.028;2023-03-01T11:02:48;93977.22;;;10.86;100.00
11345;BME280;5727;42.600;23.028;2023-03-01T11:05:20;93984.81;;;10.79;100.00
11345;BME280;5727;42.600;23.028;2023-03-01T11:07:51;93985.00;;;10.74;100.00
11345;BME280;5727;42.600;23.028;2023-03-01T11:10:20;93969.72;;;10.76;100.00
11345;BME280;5727;42.600;23.028;2023-03-01T11:12:47;93961.53;;;10.98;100.00
11345;BME280;5727;42.600;23.028;2023-03-01T11:15:23;93974.44;;;10.62;100.00
11345;BME280;5727;42.600;23.028;2023-03-01T11:17:51;93967.53;;;10.37;100.00
11345;BME280;5727;42.600;23.028;2023-03-01T11:20:25;93960.63;;;10.24;100.00
11345;BME280;5727;42.600;23.028;2023-03-01T11:22:55;93961.88;;;10.27;100.00
11345;BME280;5727;42.600;23.028;2023-03-01T11:25:26;93955.94;;;10.38;100.00
11345;BME280;5727;42.600;23.028;2023-03-01T11:27:54;93950.25;;;10.36;100.00
11345;BME280;5727;42.600;23.028;2023-03-01T11:30:25;93936.88;;;10.58;100.00
11345;BME280;5727;42.600;23.028;2023-03-01T11:33:05;93941.88;;;10.72;100.00
11345;BME280;5727;42.600;23.028;2023-03-01T11:35:43;93929.19;;;10.94;100.00
11345;BME280;5727;42.600;23.028;2023-03-01T11:38:22;93930.25;;;11.14;100.00
11345;BME280;5727;42.600;23.028;2023-03-01T11:40:53;93930.22;;;11.02;100.00
11345;BME280;5727;42.600;23.028;2023-03-01T11:43:28;93927.47;;;10.98;100.00
11345;BME280;5727;42.600;23.028;2023-03-01T11:49:06;93926.75;;;10.89;100.00
11345;BME280;5727;42.600;23.028;2023-03-01T11:51:44;93924.56;;;10.91;100.00
11345;BME280;5727;42.600;23.028;2023-03-01T11:54:19;93925.53;;;11.07;100.00
11345;BME280;5727;42.600;23.028;2023-03-01T11:56:55;93916.50;;;11.17;100.00
11345;BME280;5727;42.600;23.028;2023-03-01T11:59:50;93923.41;;;11.34;100.00
11345;BME280;5727;42.600;23.028;2023-03-01T12:05:49;93921.50;;;11.55;100.00
11345;BME280;5727;42.600;23.028;2023-03-01T12:08:24;93913.34;;;11.68;100.00
11345;BME280;5727;42.600;23.028;2023-03-01T12:11:02;93913.69;;;11.91;100.00
11345;BME280;5727;42.600;23.028;2023-03-01T12:13:48;93910.63;;;12.13;100.00
11345;BME280;5727;42.600;23.028;2023-03-01T12:16:32;93908.88;;;12.17;100.00
11345;BME280;5727;42.600;23.028;2023-03-01T12:19:12;93917.41;;;12.26;100.00
11345;BME280;5727;42.600;23.028;2023-03-01T12:21:59;93912.66;;;12.44;100.00
11345;BME280;5727;42.600;23.028;2023-03-01T12:25:00;93914.06;;;12.53;100.00
11345;BME280;5727;42.600;23.028;2023-03-01T12:27:43;93910.13;;;12.59;100.00
11345;BME280;5727;42.600;23.028;2023-03-01T12:30:23;93912.50;;;12.76;100.00
11345;BME280;5727;42.600;23.028;2023-03-01T12:32:59;93910.81;;;12.44;100.00
11345;BME280;5727;42.600;23.028;2023-03-01T12:35:38;93910.69;;;12.53;100.00
11345;BME280;5727;42.600;23.028;2023-03-01T12:38:18;93905.03;;;12.39;100.00
11345;BME280;5727;42.600;23.028;2023-03-01T12:41:08;93898.03;;;12.19;100.00
11345;BME280;5727;42.600;23.028;2023-03-01T12:43:50;93898.59;;;12.00;100.00
11345;BME280;5727;42.600;23.028;2023-03-01T12:46:41;93895.75;;;12.17;100.00
11345;BME280;5727;42.600;23.028;2023-03-01T12:49:14;93902.16;;;12.44;100.00
11345;BME280;5727;42.600;23.028;2023-03-01T12:51:49;93911.50;;;12.17;100.00
11345;BME280;5727;42.600;23.028;2023-03-01T12:54:22;93913.81;;;11.94;100.00
11345;BME280;5727;42.600;23.028;2023-03-01T12:56:54;93905.03;;;11.66;100.00
11345;BME280;5727;42.600;23.028;2023-03-01T12:59:24;93909.41;;;11.30;100.00
11345;BME280;5727;42.600;23.028;2023-03-01T13:01:57;93912.31;;;10.83;100.00
11345;BME280;5727;42.600;23.028;2023-03-01T13:04:38;93905.16;;;10.51;100.00
11345;BME280;5727;42.600;23.028;2023-03-01T13:07:25;93906.19;;;10.38;100.00
11345;BME280;5727;42.600;23.028;2023-03-01T13:10:06;93903.44;;;10.55;100.00
11345;BME280;5727;42.600;23.028;2023-03-01T13:13:08;93899.41;;;10.78;100.00
11345;BME280;5727;42.600;23.028;2023-03-01T13:15:38;93901.63;;;10.88;100.00
11345;BME280;5727;42.600;23.028;2023-03-01T13:18:28;93902.84;;;10.70;100.00
11345;BME280;5727;42.600;23.028;2023-03-01T13:20:57;93909.38;;;10.44;100.00